Last 24 Hours

Coyote Canyon

10 Minute Data | America/Los_Angeles
as of 5/2/26 6:06 PM PDT
Date & Time Temp (°F) Dew Pt (°F) RH (%) Wind Spd (mph) Wind Dir (°) Wind Gust (mph) Wind Gst Dir (°) Daily Max Temp (°F) Daily Min Temp (°F)
5/2/26 - 1800 74.9 34.4 23 8.5 W | 272 18.2 WNW | 289 78.0 60.8
5/2/26 - 1750 75.3 26.9 17 7.1 SSE | 149 13.4 SSE | 148 78.0 60.8
5/2/26 - 1740 75.2 26.1 16 11.7 SE | 135 17.5 ESE | 118 78.0 60.8
5/2/26 - 1730 76.0 26.2 16 10.1 SE | 140 14.9 SE | 142 78.0 60.8
5/2/26 - 1720 75.4 25.8 16 11.8 SE | 146 20.2 ESE | 114 78.0 60.8
5/2/26 - 1710 76.3 26.2 16 9.8 SE | 134 17.2 SSE | 167 78.0 60.8
5/2/26 - 1700 75.8 25.7 15 8.6 SE | 126 16.2 ESE | 118 78.0 60.8
5/2/26 - 1650 75.2 25.4 16 12.0 SE | 140 17.4 SE | 134 78.0 60.8
5/2/26 - 1640 75.6 25.3 15 15.9 SE | 134 22.8 SE | 125 78.0 60.8
5/2/26 - 1630 75.8 25.2 15 11.7 ESE | 108 20.5 ESE | 107 78.0 60.8
5/2/26 - 1620 76.6 25.4 15 11.6 ESE | 122 19.5 ESE | 112 78.0 60.8
5/2/26 - 1610 76.2 25.2 15 13.3 ESE | 107 20.2 ESE | 109 78.0 60.8
5/2/26 - 1600 77.1 25.4 15 12.2 ESE | 113 28.6 ESE | 116 78.0 60.8
5/2/26 - 1550 76.4 25.2 15 15.4 ESE | 116 26.4 SSE | 148 78.0 60.8
5/2/26 - 1540 76.6 25.2 15 13.3 SE | 144 22.1 SSE | 149 78.0 60.8
5/2/26 - 1530 76.9 25.2 15 14.1 SE | 130 24.6 SE | 146 78.0 60.8
5/2/26 - 1520 76.0 25.0 15 14.8 ESE | 121 26.1 SE | 134 78.0 60.8
5/2/26 - 1510 76.0 24.9 15 11.6 SE | 125 20.2 SE | 135 78.0 60.8
5/2/26 - 1500 76.0 25.0 15 15.8 SE | 128 29.2 SE | 135 78.0 60.8
5/2/26 - 1450 76.5 25.5 15 13.6 SE | 128 25.6 ESE | 104 78.0 60.8
5/2/26 - 1440 76.2 25.2 15 16.8 SE | 132 29.5 SE | 140 78.0 60.8
5/2/26 - 1430 75.8 24.6 15 12.3 ESE | 123 24.6 ESE | 120 78.0 60.8
5/2/26 - 1420 75.6 24.5 15 14.6 SE | 129 26.2 SE | 126 78.0 60.8
5/2/26 - 1410 76.4 25.3 15 18.1 SSE | 154 28.4 SE | 142 78.0 60.8
5/2/26 - 1400 75.7 25.8 16 15.6 SE | 140 27.0 SE | 133 78.0 60.8
5/2/26 - 1350 75.6 26.3 16 15.2 SE | 135 25.9 E | 96 78.0 60.8
5/2/26 - 1340 75.7 26.5 16 20.6 SE | 135 30.6 SE | 141 78.0 60.8
5/2/26 - 1330 75.2 27.3 17 15.1 SE | 136 25.2 SE | 140 78.0 60.8
5/2/26 - 1320 75.0 27.1 17 16.5 SE | 136 26.7 SE | 136 78.0 60.8
5/2/26 - 1310 75.2 26.8 17 15.6 SE | 137 25.5 SE | 132 78.0 60.8
5/2/26 - 1300 75.0 26.9 17 16.2 SE | 134 28.1 SE | 141 78.0 60.8
5/2/26 - 1250 75.8 27.0 16 16.7 ESE | 116 27.7 ESE | 116 78.0 60.8
5/2/26 - 1240 76.4 26.9 16 12.5 SE | 144 23.2 SE | 138 78.0 60.8
5/2/26 - 1230 74.9 26.9 17 12.2 SSE | 154 21.6 SSE | 159 78.0 60.8
5/2/26 - 1220 74.4 26.4 17 13.9 ESE | 109 25.1 SE | 127 78.0 60.8
5/2/26 - 1210 74.5 26.5 17 16.3 SE | 133 29.0 SE | 144 78.0 60.8
5/2/26 - 1200 76.2 27.0 16 12.8 SE | 132 29.9 SSE | 150 78.0 60.8
5/2/26 - 1150 75.2 26.0 16 14.8 SE | 129 27.8 ESE | 103 76.4 60.8
5/2/26 - 1140 75.0 26.2 16 17.3 SE | 129 24.9 ESE | 112 76.1 60.8
5/2/26 - 1130 74.4 25.8 16 16.4 SE | 140 27.4 ESE | 123 75.6 60.8
5/2/26 - 1120 74.4 25.6 16 14.7 SE | 136 22.1 SE | 124 75.6 60.8
5/2/26 - 1110 73.9 25.2 16 13.5 SE | 124 21.7 ESE | 112 75.6 60.8
5/2/26 - 1100 74.4 24.8 16 13.4 SE | 128 22.6 SE | 127 75.6 60.8
5/2/26 - 1050 74.0 24.7 16 15.3 SE | 140 22.3 SE | 141 75.6 60.8
5/2/26 - 1040 73.3 23.4 15 14.8 SE | 128 25.9 SE | 138 75.6 60.8
5/2/26 - 1030 74.1 24.1 15 13.1 SE | 126 24.6 ESE | 114 75.6 60.8
5/2/26 - 1020 73.7 23.8 15 14.6 ESE | 114 22.9 ESE | 123 74.7 60.8
5/2/26 - 1010 73.1 24.0 16 12.5 ESE | 112 19.3 ESE | 103 73.8 60.8
5/2/26 - 1000 73.0 24.0 16 12.5 ESE | 108 19.6 ESE | 121 73.5 60.8
5/2/26 - 0950 73.0 24.5 16 13.0 ESE | 112 18.4 ESE | 116 73.5 60.8
5/2/26 - 0940 72.4 23.8 16 12.4 ESE | 115 18.8 E | 85 73.5 60.8
5/2/26 - 0930 72.3 23.8 16 10.5 ESE | 108 17.7 ESE | 111 73.3 60.8
5/2/26 - 0920 72.4 24.1 16 9.5 ESE | 105 17.0 ESE | 104 73.3 60.8
5/2/26 - 0910 72.1 23.5 16 8.0 ESE | 112 14.8 E | 101 73.0 60.8
5/2/26 - 0900 71.0 23.5 17 9.0 ESE | 114 16.8 ESE | 123 71.5 60.8
5/2/26 - 0850 70.9 23.8 17 10.5 ESE | 117 14.6 ESE | 122 71.5 60.8
5/2/26 - 0840 71.2 24.7 17 8.2 ESE | 112 12.3 ESE | 120 71.4 60.8
5/2/26 - 0830 70.6 27.0 20 6.8 ESE | 120 12.2 ESE | 120 71.4 60.8
5/2/26 - 0820 69.7 26.5 20 7.7 ESE | 121 11.5 SE | 128 70.3 60.8
5/2/26 - 0810 69.9 27.2 20 5.5 ESE | 112 9.9 E | 81 70.3 60.8
5/2/26 - 0800 69.7 27.9 21 4.0 E | 100 8.7 E | 92 70.3 60.8
5/2/26 - 0750 69.4 28.4 22 4.4 E | 90 8.4 ENE | 75 69.8 60.8
5/2/26 - 0740 68.9 28.2 22 5.2 ENE | 71 8.6 ENE | 76 69.0 60.8
5/2/26 - 0730 68.2 27.7 22 5.9 ENE | 57 9.0 ENE | 65 68.4 60.8
5/2/26 - 0720 66.7 28.3 24 5.9 NE | 53 8.8 ENE | 60 67.7 60.8
5/2/26 - 0710 65.3 28.8 25 6.1 NE | 36 10.4 NNE | 33 65.6 60.8
5/2/26 - 0700 64.5 28.5 26 7.1 NNE | 30 9.9 NNE | 31 65.5 60.8
5/2/26 - 0650 64.8 28.5 25 7.4 NNE | 33 9.9 NNE | 28 65.5 60.8
5/2/26 - 0640 64.9 28.3 25 6.0 NNE | 33 8.4 NE | 40 65.5 60.8
5/2/26 - 0630 64.1 28.5 26 6.2 NNE | 21 8.6 NNE | 24 65.5 60.8
5/2/26 - 0620 64.2 28.8 26 4.8 NNE | 16 7.5 NE | 38 65.5 60.8
5/2/26 - 0610 63.6 28.8 27 6.1 NNE | 30 8.4 NNE | 33 65.5 60.8
5/2/26 - 0600 64.0 28.8 26 8.3 NE | 39 10.1 NE | 39 65.5 60.8
5/2/26 - 0550 63.7 28.5 26 8.8 NE | 40 12.0 NNE | 28 65.5 60.8
5/2/26 - 0540 64.5 27.8 25 8.8 NNE | 32 11.0 NE | 35 65.5 60.8
5/2/26 - 0530 64.8 27.4 24 7.7 NNE | 33 11.0 NE | 38 65.5 60.8
5/2/26 - 0520 64.8 27.2 24 5.7 NE | 41 7.8 NE | 41 65.5 60.8
5/2/26 - 0510 64.8 28.0 25 5.2 NE | 41 7.1 NE | 42 65.5 60.8
5/2/26 - 0500 64.3 28.7 26 5.3 NNE | 13 7.3 N | 11 65.5 60.8
5/2/26 - 0450 64.1 29.0 27 5.0 NE | 48 8.6 NE | 46 65.5 60.8
5/2/26 - 0440 63.4 29.7 28 3.9 NNE | 19 8.8 N | 9 65.5 60.8
5/2/26 - 0430 64.3 29.9 27 3.6 N | 358 8.6 NNE | 12 65.5 60.8
5/2/26 - 0420 64.4 30.3 28 6.7 N | 353 9.5 NNE | 13 65.5 60.8
5/2/26 - 0410 64.9 29.8 27 1.7 NNE | 13 8.8 NE | 37 65.5 60.8
5/2/26 - 0400 64.3 29.8 27 3.9 NNW | 327 8.8 WNW | 293 65.5 60.8
5/2/26 - 0350 63.8 30.2 28 7.0 WNW | 300 10.4 NW | 322 65.5 60.8
5/2/26 - 0340 63.8 29.8 28 8.8 WNW | 298 12.7 W | 269 65.5 60.8
5/2/26 - 0330 64.5 29.6 27 7.9 NW | 310 12.4 NW | 308 65.5 60.8
5/2/26 - 0320 64.5 29.8 27 7.6 WNW | 294 10.0 WNW | 291 65.2 60.8
5/2/26 - 0310 64.5 29.7 27 9.1 WNW | 297 11.2 NW | 304 65.2 60.8
5/2/26 - 0300 64.5 29.4 27 8.0 WNW | 286 10.7 WNW | 284 65.0 60.8
5/2/26 - 0250 64.2 29.9 27 9.8 WNW | 288 11.5 WNW | 290 64.9 60.8
5/2/26 - 0240 64.4 29.5 27 11.2 WNW | 294 15.5 WNW | 286 64.9 60.8
5/2/26 - 0230 62.8 30.6 30 11.7 WNW | 295 14.3 WNW | 292 64.8 60.8
5/2/26 - 0220 62.8 31.0 30 11.5 WNW | 293 13.8 WNW | 291 64.8 60.8
5/2/26 - 0210 63.6 31.0 29 12.8 WNW | 291 15.4 WNW | 287 64.8 60.8
5/2/26 - 0200 64.3 30.6 28 12.4 WNW | 294 14.3 WNW | 296 64.8 60.8
5/2/26 - 0150 62.2 31.5 31 12.1 WNW | 294 13.8 WNW | 297 63.6 60.8
5/2/26 - 0140 62.7 31.3 31 12.7 WNW | 296 14.6 WNW | 290 63.5 60.8
5/2/26 - 0130 62.4 31.5 31 12.8 WNW | 293 14.9 WNW | 287 63.5 60.8
5/2/26 - 0120 62.5 31.8 31 13.0 WNW | 292 14.2 WNW | 292 63.5 60.8
5/2/26 - 0110 61.2 34.6 37 13.8 WNW | 290 16.1 WNW | 284 61.6 60.8
5/2/26 - 0100 61.0 36.5 40 14.3 WNW | 289 16.7 WNW | 288 77.6 52.9
5/2/26 - 0050 60.1 39.1 46 13.0 WNW | 292 15.4 WNW | 283 77.6 52.9
5/2/26 - 0040 59.4 41.8 52 12.8 WNW | 297 14.8 WNW | 290 77.6 52.9
5/2/26 - 0030 59.1 42.4 54 14.3 WNW | 288 17.0 WNW | 284 77.6 52.9
5/2/26 - 0020 59.0 41.7 53 13.7 WNW | 285 16.4 WNW | 286 77.6 52.9
5/2/26 - 0010 59.4 42.1 53 13.5 WNW | 286 15.8 WNW | 282 77.6 52.9
5/2/26 - 0000 59.5 43.6 55 13.1 WNW | 294 14.8 WNW | 297 77.6 52.9
5/1/26 - 2350 59.4 44.5 58 14.5 WNW | 290 17.3 WNW | 283 77.6 52.9
5/1/26 - 2340 59.3 45.2 59 13.2 WNW | 292 15.9 NW | 305 77.6 52.9
5/1/26 - 2330 58.7 46.5 64 13.4 WNW | 289 15.8 WNW | 291 77.6 52.9
5/1/26 - 2320 58.6 47.1 65 13.5 WNW | 285 15.7 WNW | 284 77.6 52.9
5/1/26 - 2310 58.7 47.1 65 14.1 WNW | 286 16.7 WNW | 287 77.6 52.9
5/1/26 - 2300 58.9 47.1 65 14.2 WNW | 286 17.0 WNW | 285 77.6 52.9
5/1/26 - 2250 58.9 46.9 64 13.9 WNW | 289 17.4 WNW | 288 77.6 52.9
5/1/26 - 2240 59.3 46.9 63 14.0 WNW | 287 17.5 WNW | 286 77.6 52.9
5/1/26 - 2230 59.6 46.7 62 13.9 WNW | 290 17.2 WNW | 291 77.6 52.9
5/1/26 - 2220 60.6 46.2 59 14.4 WNW | 290 18.7 WNW | 283 77.6 52.9
5/1/26 - 2210 61.0 45.9 57 15.2 WNW | 291 20.0 WNW | 296 77.6 52.9
5/1/26 - 2200 61.2 46.6 59 15.3 WNW | 292 20.0 WNW | 290 77.6 52.9
5/1/26 - 2150 61.0 47.5 61 13.0 WNW | 294 17.1 WNW | 293 77.6 52.9
5/1/26 - 2140 60.9 47.6 61 15.6 WNW | 292 21.3 WNW | 299 77.6 52.9
5/1/26 - 2130 60.3 48.8 66 16.3 WNW | 294 20.9 WNW | 287 77.6 52.9
5/1/26 - 2120 60.3 49.6 67 15.6 WNW | 295 18.8 WNW | 297 77.6 52.9
5/1/26 - 2110 60.7 49.9 68 12.8 WNW | 288 17.0 WNW | 282 77.6 52.9
5/1/26 - 2100 61.0 50.5 68 12.8 WNW | 291 16.9 WNW | 293 77.6 52.9
5/1/26 - 2050 61.3 51.0 69 12.9 WNW | 288 16.2 WNW | 290 77.6 52.9
5/1/26 - 2040 61.5 50.8 68 12.9 WNW | 285 16.3 WNW | 283 77.6 52.9
5/1/26 - 2030 61.9 51.1 68 14.1 WNW | 283 18.8 WNW | 285 77.6 52.9
5/1/26 - 2020 62.4 51.1 66 12.0 W | 280 15.3 WNW | 283 77.6 52.9
5/1/26 - 2010 62.8 51.5 67 13.4 W | 278 17.2 W | 267 77.6 52.9
5/1/26 - 2000 63.5 51.7 65 14.4 W | 268 18.8 WSW | 249 77.6 52.9
5/1/26 - 1950 64.0 52.2 65 14.6 W | 262 20.1 W | 261 77.6 52.9
5/1/26 - 1940 64.9 52.5 64 14.2 W | 263 19.7 W | 273 77.6 52.9
5/1/26 - 1930 66.2 52.1 60 15.1 W | 266 19.5 W | 263 77.6 52.9
5/1/26 - 1920 67.3 51.5 57 16.2 W | 272 22.6 W | 274 77.6 52.9
5/1/26 - 1910 68.0 51.6 56 18.3 W | 273 24.3 W | 270 77.6 52.9
5/1/26 - 1900 68.6 51.6 54 18.9 W | 276 24.8 W | 268 77.6 52.9
5/1/26 - 1850 69.4 50.2 50 19.1 W | 273 27.1 W | 276 77.6 52.9
5/1/26 - 1840 69.9 49.4 48 18.3 W | 266 26.5 W | 270 77.6 52.9
5/1/26 - 1830 70.8 45.6 41 19.3 W | 259 27.2 WSW | 250 77.6 52.9
5/1/26 - 1820 71.2 45.4 40 19.9 W | 260 27.9 W | 269 77.6 52.9
5/1/26 - 1810 71.8 43.6 36 19.5 W | 261 26.9 W | 264 77.6 52.9
5/1/26 - 1800 72.3 43.7 36 18.2 W | 259 25.6 WSW | 251 77.6 52.9
Max 77.1 52.5 69 20.6 - 30.6 - 78.0 60.8
Avg 68.1 33.2 32 12.0 - 17.9 - - -
Min 58.6 23.4 15 1.7 - 7.1 - 61.6 52.9